sensor_id;sensor_type;location;lat;lon;timestamp;pressure;altitude;pressure_sealevel;temperature;humidity
78717;BME280;68045;50.042;14.432;2023-03-18T00:03:52;98104.78;;;5.78;44.33
78717;BME280;68045;50.042;14.432;2023-03-18T00:07:53;98106.16;;;5.87;44.71
78717;BME280;68045;50.042;14.432;2023-03-18T00:11:54;98093.88;;;5.81;44.29
78717;BME280;68045;50.042;14.432;2023-03-18T00:15:56;98098.09;;;5.82;44.10
78717;BME280;68045;50.042;14.432;2023-03-18T00:19:58;98103.56;;;5.81;44.23
78717;BME280;68045;50.042;14.432;2023-03-18T00:24:05;98112.41;;;5.86;44.51
78717;BME280;68045;50.042;14.432;2023-03-18T00:28:07;98104.13;;;5.89;44.47
78717;BME280;68045;50.042;14.432;2023-03-18T00:32:08;98115.41;;;5.90;47.72
78717;BME280;68045;50.042;14.432;2023-03-18T00:36:10;98123.72;;;5.93;47.65
78717;BME280;68045;50.042;14.432;2023-03-18T00:40:13;98117.06;;;5.91;48.22
78717;BME280;68045;50.042;14.432;2023-03-18T00:44:20;98129.13;;;5.92;47.76
78717;BME280;68045;50.042;14.432;2023-03-18T00:48:21;98117.06;;;5.91;48.59
78717;BME280;68045;50.042;14.432;2023-03-18T00:52:23;98107.78;;;5.88;48.39
78717;BME280;68045;50.042;14.432;2023-03-18T00:56:28;98118.03;;;5.90;48.41
78717;BME280;68045;50.042;14.432;2023-03-18T01:00:31;98112.22;;;5.88;48.54
78717;BME280;68045;50.042;14.432;2023-03-18T01:04:32;98118.47;;;5.87;48.59
78717;BME280;68045;50.042;14.432;2023-03-18T01:08:33;98118.47;;;5.87;48.25
78717;BME280;68045;50.042;14.432;2023-03-18T01:12:35;98112.63;;;5.78;48.75
78717;BME280;68045;50.042;14.432;2023-03-18T01:16:36;98104.34;;;5.74;47.71
78717;BME280;68045;50.042;14.432;2023-03-18T01:20:38;98115.44;;;5.63;46.91
78717;BME280;68045;50.042;14.432;2023-03-18T01:24:40;98117.06;;;5.58;47.76
78717;BME280;68045;50.042;14.432;2023-03-18T01:28:42;98113.00;;;5.48;47.31
78717;BME280;68045;50.042;14.432;2023-03-18T01:32:44;98105.56;;;5.45;47.65
78717;BME280;68045;50.042;14.432;2023-03-18T01:36:45;98099.13;;;5.35;47.81
78717;BME280;68045;50.042;14.432;2023-03-18T01:40:48;98097.94;;;5.37;48.61
78717;BME280;68045;50.042;14.432;2023-03-18T01:45:27;98089.47;;;5.29;47.43
78717;BME280;68045;50.042;14.432;2023-03-18T01:49:38;98089.81;;;4.99;48.07
78717;BME280;68045;50.042;14.432;2023-03-18T01:53:45;98089.63;;;5.01;48.33
78717;BME280;68045;50.042;14.432;2023-03-18T01:57:48;98099.25;;;5.00;49.11
78717;BME280;68045;50.042;14.432;2023-03-18T02:02:01;98097.88;;;4.97;49.40
78717;BME280;68045;50.042;14.432;2023-03-18T02:06:07;98093.44;;;5.05;49.41
78717;BME280;68045;50.042;14.432;2023-03-18T02:10:15;98105.34;;;5.01;49.87
78717;BME280;68045;50.042;14.432;2023-03-18T02:14:19;98109.16;;;5.05;50.28
78717;BME280;68045;50.042;14.432;2023-03-18T02:18:27;98100.91;;;5.08;50.06
78717;BME280;68045;50.042;14.432;2023-03-18T02:22:44;98107.56;;;5.10;50.83
78717;BME280;68045;50.042;14.432;2023-03-18T02:27:02;98108.75;;;5.08;50.29
78717;BME280;68045;50.042;14.432;2023-03-18T02:31:14;98104.31;;;5.02;48.23
78717;BME280;68045;50.042;14.432;2023-03-18T02:35:16;98109.88;;;4.85;48.85
78717;BME280;68045;50.042;14.432;2023-03-18T02:39:18;98099.56;;;4.64;48.54
78717;BME280;68045;50.042;14.432;2023-03-18T02:43:31;98110.19;;;4.56;49.12
78717;BME280;68045;50.042;14.432;2023-03-18T02:47:38;98109.00;;;4.52;49.58
78717;BME280;68045;50.042;14.432;2023-03-18T02:51:40;98115.84;;;4.53;50.48
78717;BME280;68045;50.042;14.432;2023-03-18T02:55:42;98125.50;;;4.59;50.84
78717;BME280;68045;50.042;14.432;2023-03-18T02:59:43;98123.09;;;4.64;50.81
78717;BME280;68045;50.042;14.432;2023-03-18T03:03:45;98115.84;;;4.59;48.38
78717;BME280;68045;50.042;14.432;2023-03-18T03:07:47;98126.25;;;4.46;48.48
78717;BME280;68045;50.042;14.432;2023-03-18T03:11:48;98135.25;;;4.44;48.50
78717;BME280;68045;50.042;14.432;2023-03-18T03:15:55;98132.28;;;4.47;49.29
78717;BME280;68045;50.042;14.432;2023-03-18T03:19:57;98138.72;;;4.51;48.35
78717;BME280;68045;50.042;14.432;2023-03-18T03:23:58;98135.72;;;4.54;50.54
78717;BME280;68045;50.042;14.432;2023-03-18T03:28:00;98156.88;;;4.59;52.03
78717;BME280;68045;50.042;14.432;2023-03-18T03:32:01;98153.06;;;4.61;51.39
78717;BME280;68045;50.042;14.432;2023-03-18T03:36:02;98151.25;;;4.62;51.21
78717;BME280;68045;50.042;14.432;2023-03-18T03:40:05;98151.25;;;4.62;51.87
78717;BME280;68045;50.042;14.432;2023-03-18T03:44:07;98164.72;;;4.59;51.74
78717;BME280;68045;50.042;14.432;2023-03-18T03:48:10;98168.28;;;4.51;52.60
78717;BME280;68045;50.042;14.432;2023-03-18T03:52:12;98176.09;;;4.45;53.08
78717;BME280;68045;50.042;14.432;2023-03-18T03:56:15;98168.38;;;4.36;53.32
78717;BME280;68045;50.042;14.432;2023-03-18T04:00:19;98182.69;;;4.40;52.64
78717;BME280;68045;50.042;14.432;2023-03-18T04:04:22;98180.28;;;4.39;52.51
78717;BME280;68045;50.042;14.432;2023-03-18T04:08:24;98194.22;;;4.18;53.66
78717;BME280;68045;50.042;14.432;2023-03-18T04:12:25;98194.72;;;4.07;54.22
78717;BME280;68045;50.042;14.432;2023-03-18T04:16:32;98197.13;;;4.02;54.12
78717;BME280;68045;50.042;14.432;2023-03-18T04:20:37;98206.72;;;3.95;55.07
78717;BME280;68045;50.042;14.432;2023-03-18T04:24:44;98194.66;;;3.72;54.92
78717;BME280;68045;50.042;14.432;2023-03-18T04:28:45;98196.03;;;3.68;55.49
78717;BME280;68045;50.042;14.432;2023-03-18T04:32:50;98189.00;;;3.69;54.74
78717;BME280;68045;50.042;14.432;2023-03-18T04:36:52;98188.94;;;3.62;53.89
78717;BME280;68045;50.042;14.432;2023-03-18T04:40:54;98187.34;;;3.61;53.32
78717;BME280;68045;50.042;14.432;2023-03-18T04:44:55;98203.53;;;3.56;53.27
78717;BME280;68045;50.042;14.432;2023-03-18T04:48:57;98210.25;;;3.66;55.48
78717;BME280;68045;50.042;14.432;2023-03-18T04:52:58;98207.09;;;3.49;58.35
78717;BME280;68045;50.042;14.432;2023-03-18T04:57:03;98201.75;;;3.57;58.50
78717;BME280;68045;50.042;14.432;2023-03-18T05:01:09;98201.00;;;3.63;58.38
78717;BME280;68045;50.042;14.432;2023-03-18T05:05:12;98199.75;;;3.59;56.69
78717;BME280;68045;50.042;14.432;2023-03-18T05:09:19;98197.97;;;3.60;56.42
78717;BME280;68045;50.042;14.432;2023-03-18T05:13:20;98207.41;;;3.61;55.77
78717;BME280;68045;50.042;14.432;2023-03-18T05:17:23;98210.97;;;3.53;53.82
78717;BME280;68045;50.042;14.432;2023-03-18T05:21:31;98210.25;;;3.66;55.74
78717;BME280;68045;50.042;14.432;2023-03-18T05:25:34;98210.09;;;3.67;54.53
78717;BME280;68045;50.042;14.432;2023-03-18T05:29:36;98210.19;;;3.59;54.36
78717;BME280;68045;50.042;14.432;2023-03-18T05:33:49;98200.81;;;3.65;55.92
78717;BME280;68045;50.042;14.432;2023-03-18T05:37:50;98204.47;;;3.70;54.08
78717;BME280;68045;50.042;14.432;2023-03-18T05:41:52;98202.06;;;3.69;54.44
78717;BME280;68045;50.042;14.432;2023-03-18T05:45:58;98214.53;;;3.73;54.47
78717;BME280;68045;50.042;14.432;2023-03-18T05:50:29;98204.78;;;3.82;54.56
78717;BME280;68045;50.042;14.432;2023-03-18T05:54:32;98217.91;;;3.89;54.64
78717;BME280;68045;50.042;14.432;2023-03-18T05:58:33;98221.59;;;4.01;54.02
78717;BME280;68045;50.042;14.432;2023-03-18T06:03:01;98220.19;;;3.98;55.64
78717;BME280;68045;50.042;14.432;2023-03-18T06:07:03;98223.13;;;4.17;54.05
78717;BME280;68045;50.042;14.432;2023-03-18T06:11:06;98217.63;;;4.33;52.80
78717;BME280;68045;50.042;14.432;2023-03-18T06:15:10;98225.00;;;4.57;51.21
78717;BME280;68045;50.042;14.432;2023-03-18T06:19:12;98215.88;;;4.81;51.97
78717;BME280;68045;50.042;14.432;2023-03-18T06:23:15;98223.22;;;5.06;52.27
78717;BME280;68045;50.042;14.432;2023-03-18T06:27:16;98225.31;;;5.23;49.66
78717;BME280;68045;50.042;14.432;2023-03-18T06:31:20;98223.56;;;5.44;50.34
78717;BME280;68045;50.042;14.432;2023-03-18T06:35:22;98222.16;;;5.55;49.78
78717;BME280;68045;50.042;14.432;2023-03-18T06:39:27;98215.34;;;5.67;50.58
78717;BME280;68045;50.042;14.432;2023-03-18T06:43:29;98222.78;;;5.83;50.74
78717;BME280;68045;50.042;14.432;2023-03-18T06:47:31;98229.91;;;6.02;50.16
78717;BME280;68045;50.042;14.432;2023-03-18T06:51:33;98231.50;;;6.17;50.09
78717;BME280;68045;50.042;14.432;2023-03-18T06:55:34;98231.09;;;6.20;49.34
78717;BME280;68045;50.042;14.432;2023-03-18T06:59:38;98235.94;;;6.49;49.24
78717;BME280;68045;50.042;14.432;2023-03-18T07:03:40;98246.16;;;6.71;48.62
78717;BME280;68045;50.042;14.432;2023-03-18T07:07:43;98251.16;;;6.85;46.04
78717;BME280;68045;50.042;14.432;2023-03-18T07:11:44;98251.91;;;7.06;46.28
78717;BME280;68045;50.042;14.432;2023-03-18T07:15:50;98265.16;;;7.24;46.62
78717;BME280;68045;50.042;14.432;2023-03-18T07:19:52;98265.97;;;7.18;48.01
78717;BME280;68045;50.042;14.432;2023-03-18T07:23:54;98264.44;;;7.49;48.60
78717;BME280;68045;50.042;14.432;2023-03-18T07:27:55;98270.53;;;7.81;46.18
78717;BME280;68045;50.042;14.432;2023-03-18T07:31:56;98276.38;;;8.14;45.92
78717;BME280;68045;50.042;14.432;2023-03-18T07:35:57;98272.00;;;8.02;44.52
78717;BME280;68045;50.042;14.432;2023-03-18T07:39:59;98277.38;;;8.13;42.73
78717;BME280;68045;50.042;14.432;2023-03-18T07:44:00;98270.75;;;8.11;41.69
78717;BME280;68045;50.042;14.432;2023-03-18T07:48:01;98269.00;;;8.23;41.15
78717;BME280;68045;50.042;14.432;2023-03-18T07:52:02;98266.81;;;8.20;41.38
78717;BME280;68045;50.042;14.432;2023-03-18T07:56:03;98267.91;;;8.37;40.82
78717;BME280;68045;50.042;14.432;2023-03-18T08:00:06;98252.00;;;8.50;40.14
78717;BME280;68045;50.042;14.432;2023-03-18T08:04:13;98268.03;;;8.49;39.68
78717;BME280;68045;50.042;14.432;2023-03-18T08:08:14;98277.22;;;8.83;39.41
78717;BME280;68045;50.042;14.432;2023-03-18T08:12:16;98253.69;;;9.36;38.81
78717;BME280;68045;50.042;14.432;2023-03-18T08:16:18;98262.16;;;9.57;36.87
78717;BME280;68045;50.042;14.432;2023-03-18T08:20:19;98270.97;;;9.81;35.58
78717;BME280;68045;50.042;14.432;2023-03-18T08:24:21;98264.03;;;10.22;33.71
78717;BME280;68045;50.042;14.432;2023-03-18T08:28:22;98267.19;;;10.77;32.43
78717;BME280;68045;50.042;14.432;2023-03-18T08:32:23;98262.31;;;11.21;32.08
78717;BME280;68045;50.042;14.432;2023-03-18T08:36:25;98265.84;;;12.12;30.10
78717;BME280;68045;50.042;14.432;2023-03-18T08:40:28;98261.47;;;12.90;28.98
78717;BME280;68045;50.042;14.432;2023-03-18T08:44:29;98267.16;;;13.21;27.79
78717;BME280;68045;50.042;14.432;2023-03-18T08:48:31;98265.72;;;13.57;26.82
78717;BME280;68045;50.042;14.432;2023-03-18T08:52:32;98269.34;;;13.72;27.10
78717;BME280;68045;50.042;14.432;2023-03-18T08:56:33;98276.09;;;14.12;25.72
78717;BME280;68045;50.042;14.432;2023-03-18T09:00:37;98274.88;;;13.44;27.49
78717;BME280;68045;50.042;14.432;2023-03-18T09:04:38;98274.56;;;13.02;27.85
78717;BME280;68045;50.042;14.432;2023-03-18T09:08:40;98276.84;;;13.32;27.44
78717;BME280;68045;50.042;14.432;2023-03-18T09:12:41;98278.41;;;16.64;23.73
78717;BME280;68045;50.042;14.432;2023-03-18T09:16:43;98272.22;;;20.24;20.11
78717;BME280;68045;50.042;14.432;2023-03-18T09:20:45;98266.91;;;22.03;17.63
78717;BME280;68045;50.042;14.432;2023-03-18T09:24:46;98265.97;;;24.32;14.76
78717;BME280;68045;50.042;14.432;2023-03-18T09:28:47;98267.66;;;26.31;13.04
78717;BME280;68045;50.042;14.432;2023-03-18T09:32:48;98266.56;;;24.63;14.27
78717;BME280;68045;50.042;14.432;2023-03-18T09:36:49;98273.84;;;25.18;13.33
78717;BME280;68045;50.042;14.432;2023-03-18T09:41:22;98267.81;;;25.93;12.95
78717;BME280;68045;50.042;14.432;2023-03-18T09:53:55;98269.69;;;26.34;12.57
78717;BME280;68045;50.042;14.432;2023-03-18T09:57:59;98275.00;;;25.09;13.42
78717;BME280;68045;50.042;14.432;2023-03-18T10:02:09;98271.06;;;23.16;15.16
78717;BME280;68045;50.042;14.432;2023-03-18T10:06:19;98265.13;;;22.96;15.58
78717;BME280;68045;50.042;14.432;2023-03-18T10:10:27;98260.97;;;22.28;15.86
78717;BME280;68045;50.042;14.432;2023-03-18T10:14:35;98256.69;;;21.27;17.29
78717;BME280;68045;50.042;14.432;2023-03-18T10:18:41;98259.13;;;21.79;16.88
78717;BME280;68045;50.042;14.432;2023-03-18T10:23:08;98267.03;;;21.20;17.44
78717;BME280;68045;50.042;14.432;2023-03-18T10:31:34;98275.44;;;20.07;18.56
78717;BME280;68045;50.042;14.432;2023-03-18T10:35:48;98278.06;;;21.05;17.71
78717;BME280;68045;50.042;14.432;2023-03-18T10:39:52;98275.69;;;21.58;17.35
78717;BME280;68045;50.042;14.432;2023-03-18T10:43:55;98271.53;;;24.27;14.72
78717;BME280;68045;50.042;14.432;2023-03-18T10:52:13;98277.06;;;28.17;11.34
78717;BME280;68045;50.042;14.432;2023-03-18T10:56:18;98280.28;;;28.63;10.87
78717;BME280;68045;50.042;14.432;2023-03-18T11:00:28;98280.88;;;28.72;10.98
78717;BME280;68045;50.042;14.432;2023-03-18T11:04:37;98269.50;;;28.10;11.20
78717;BME280;68045;50.042;14.432;2023-03-18T11:08:46;98260.53;;;28.50;10.96
78717;BME280;68045;50.042;14.432;2023-03-18T11:12:47;98259.97;;;29.04;11.13
78717;BME280;68045;50.042;14.432;2023-03-18T11:16:56;98261.53;;;26.55;12.38
78717;BME280;68045;50.042;14.432;2023-03-18T11:20:59;98254.91;;;24.89;13.89
78717;BME280;68045;50.042;14.432;2023-03-18T11:25:17;98256.31;;;23.79;15.20
78717;BME280;68045;50.042;14.432;2023-03-18T11:29:29;98245.94;;;25.06;14.49
78717;BME280;68045;50.042;14.432;2023-03-18T11:33:33;98246.03;;;26.89;12.80
78717;BME280;68045;50.042;14.432;2023-03-18T11:37:40;98235.97;;;28.31;11.47
78717;BME280;68045;50.042;14.432;2023-03-18T11:41:42;98228.03;;;30.26;10.39
78717;BME280;68045;50.042;14.432;2023-03-18T11:45:59;98230.47;;;30.54;10.30
78717;BME280;68045;50.042;14.432;2023-03-18T11:50:02;98214.06;;;32.13;9.03
78717;BME280;68045;50.042;14.432;2023-03-18T11:54:46;98201.19;;;31.50;10.12
78717;BME280;68045;50.042;14.432;2023-03-18T12:33:46;98193.91;;;30.55;10.76
78717;BME280;68045;50.042;14.432;2023-03-18T12:42:10;98189.44;;;27.88;12.79
78717;BME280;68045;50.042;14.432;2023-03-18T12:50:38;98189.03;;;28.46;12.17
78717;BME280;68045;50.042;14.432;2023-03-18T13:03:34;98194.31;;;26.45;13.86
78717;BME280;68045;50.042;14.432;2023-03-18T13:16:16;98174.00;;;25.22;15.15
78717;BME280;68045;50.042;14.432;2023-03-18T13:24:42;98175.88;;;25.30;14.85
78717;BME280;68045;50.042;14.432;2023-03-18T13:33:56;98163.75;;;27.58;12.79
78717;BME280;68045;50.042;14.432;2023-03-18T13:38:08;98169.34;;;28.05;12.63
78717;BME280;68045;50.042;14.432;2023-03-18T13:42:28;98167.88;;;28.24;12.54
78717;BME280;68045;50.042;14.432;2023-03-18T13:46:32;98156.97;;;26.50;13.68
78717;BME280;68045;50.042;14.432;2023-03-18T13:50:36;98162.34;;;25.51;15.02
78717;BME280;68045;50.042;14.432;2023-03-18T13:54:40;98157.50;;;24.00;16.13
78717;BME280;68045;50.042;14.432;2023-03-18T13:58:45;98156.31;;;22.18;18.29
78717;BME280;68045;50.042;14.432;2023-03-18T14:07:18;98156.16;;;19.77;21.80
78717;BME280;68045;50.042;14.432;2023-03-18T14:15:39;98155.50;;;19.29;22.57
78717;BME280;68045;50.042;14.432;2023-03-18T14:19:42;98148.34;;;18.81;23.73
78717;BME280;68045;50.042;14.432;2023-03-18T14:24:08;98141.50;;;18.94;22.91
78717;BME280;68045;50.042;14.432;2023-03-18T14:28:16;98144.28;;;18.60;23.58
78717;BME280;68045;50.042;14.432;2023-03-18T14:40:55;98148.75;;;18.17;23.89
78717;BME280;68045;50.042;14.432;2023-03-18T14:45:13;98142.63;;;18.16;24.50
78717;BME280;68045;50.042;14.432;2023-03-18T14:50:11;98141.03;;;18.39;24.09
78717;BME280;68045;50.042;14.432;2023-03-18T14:54:06;98131.78;;;18.31;24.41
78717;BME280;68045;50.042;14.432;2023-03-18T14:58:17;98119.25;;;20.34;21.57
78717;BME280;68045;50.042;14.432;2023-03-18T15:02:27;98118.50;;;23.11;19.04
78717;BME280;68045;50.042;14.432;2023-03-18T15:06:30;98122.03;;;25.04;16.90
78717;BME280;68045;50.042;14.432;2023-03-18T15:10:32;98104.69;;;25.47;16.14
78717;BME280;68045;50.042;14.432;2023-03-18T15:14:33;98105.84;;;24.96;16.53
78717;BME280;68045;50.042;14.432;2023-03-18T15:18:36;98119.44;;;25.29;16.53
78717;BME280;68045;50.042;14.432;2023-03-18T15:22:38;98113.47;;;25.23;16.34
78717;BME280;68045;50.042;14.432;2023-03-18T15:26:40;98114.31;;;24.85;16.69
78717;BME280;68045;50.042;14.432;2023-03-18T15:30:50;98117.25;;;24.72;16.90
78717;BME280;68045;50.042;14.432;2023-03-18T15:35:05;98119.72;;;24.85;16.86
78717;BME280;68045;50.042;14.432;2023-03-18T15:43:45;98110.25;;;23.60;18.23
78717;BME280;68045;50.042;14.432;2023-03-18T15:47:46;98121.41;;;22.27;19.41
78717;BME280;68045;50.042;14.432;2023-03-18T15:52:00;98112.44;;;21.19;21.00
78717;BME280;68045;50.042;14.432;2023-03-18T15:56:20;98116.75;;;20.10;22.25
78717;BME280;68045;50.042;14.432;2023-03-18T16:00:24;98121.50;;;19.29;23.58
78717;BME280;68045;50.042;14.432;2023-03-18T16:04:29;98128.84;;;18.57;24.94
78717;BME280;68045;50.042;14.432;2023-03-18T16:08:32;98136.16;;;17.93;25.45
78717;BME280;68045;50.042;14.432;2023-03-18T16:12:34;98139.13;;;17.52;26.84
78717;BME280;68045;50.042;14.432;2023-03-18T16:16:35;98144.47;;;17.03;27.35
78717;BME280;68045;50.042;14.432;2023-03-18T16:20:37;98144.38;;;16.64;27.83
78717;BME280;68045;50.042;14.432;2023-03-18T16:24:38;98146.34;;;16.12;28.68
78717;BME280;68045;50.042;14.432;2023-03-18T16:28:41;98148.75;;;15.68;29.98
78717;BME280;68045;50.042;14.432;2023-03-18T16:32:43;98159.84;;;15.24;30.51
78717;BME280;68045;50.042;14.432;2023-03-18T16:36:45;98161.34;;;15.00;31.30
78717;BME280;68045;50.042;14.432;2023-03-18T16:40:47;98169.56;;;14.88;31.68
78717;BME280;68045;50.042;14.432;2023-03-18T16:44:48;98165.78;;;14.74;31.64
78717;BME280;68045;50.042;14.432;2023-03-18T16:48:49;98166.47;;;14.49;32.19
78717;BME280;68045;50.042;14.432;2023-03-18T16:52:50;98168.91;;;14.18;32.74
78717;BME280;68045;50.042;14.432;2023-03-18T16:56:54;98171.31;;;13.88;33.85
78717;BME280;68045;50.042;14.432;2023-03-18T17:00:57;98167.41;;;13.63;33.60
78717;BME280;68045;50.042;14.432;2023-03-18T17:05:00;98172.81;;;13.46;34.26
78717;BME280;68045;50.042;14.432;2023-03-18T17:09:02;98174.56;;;13.36;34.89
78717;BME280;68045;50.042;14.432;2023-03-18T17:13:06;98171.50;;;13.22;34.93
78717;BME280;68045;50.042;14.432;2023-03-18T17:17:20;98172.66;;;13.09;35.70
78717;BME280;68045;50.042;14.432;2023-03-18T17:21:30;98174.16;;;13.00;35.77
78717;BME280;68045;50.042;14.432;2023-03-18T17:25:32;98169.78;;;12.89;36.43
78717;BME280;68045;50.042;14.432;2023-03-18T17:29:33;98162.25;;;12.81;36.73
78717;BME280;68045;50.042;14.432;2023-03-18T17:33:35;98152.91;;;12.73;36.95
78717;BME280;68045;50.042;14.432;2023-03-18T17:37:37;98158.19;;;12.51;37.90
78717;BME280;68045;50.042;14.432;2023-03-18T17:41:38;98159.69;;;12.25;37.84
78717;BME280;68045;50.042;14.432;2023-03-18T17:45:40;98148.97;;;12.15;38.54
78717;BME280;68045;50.042;14.432;2023-03-18T17:49:41;98157.78;;;12.04;39.84
78717;BME280;68045;50.042;14.432;2023-03-18T17:53:47;98163.69;;;11.77;40.65
78717;BME280;68045;50.042;14.432;2023-03-18T17:57:49;98163.66;;;11.61;40.90
78717;BME280;68045;50.042;14.432;2023-03-18T18:01:50;98176.22;;;11.53;40.49
78717;BME280;68045;50.042;14.432;2023-03-18T18:05:53;98178.06;;;11.36;41.82
78717;BME280;68045;50.042;14.432;2023-03-18T18:09:54;98170.13;;;11.36;42.16
78717;BME280;68045;50.042;14.432;2023-03-18T18:14:10;98164.22;;;11.17;41.92
78717;BME280;68045;50.042;14.432;2023-03-18T18:18:23;98166.75;;;11.12;42.39
78717;BME280;68045;50.042;14.432;2023-03-18T18:22:25;98170.63;;;10.93;42.56
78717;BME280;68045;50.042;14.432;2023-03-18T18:26:26;98169.25;;;10.90;43.17
78717;BME280;68045;50.042;14.432;2023-03-18T18:30:27;98166.50;;;10.85;43.29
78717;BME280;68045;50.042;14.432;2023-03-18T18:34:29;98165.41;;;10.69;43.88
78717;BME280;68045;50.042;14.432;2023-03-18T18:38:31;98174.91;;;10.70;44.13
78717;BME280;68045;50.042;14.432;2023-03-18T18:42:32;98168.50;;;10.66;44.27
78717;BME280;68045;50.042;14.432;2023-03-18T18:46:34;98177.84;;;10.57;44.35
78717;BME280;68045;50.042;14.432;2023-03-18T18:50:35;98174.16;;;10.58;45.04
78717;BME280;68045;50.042;14.432;2023-03-18T18:54:37;98171.28;;;10.60;44.32
78717;BME280;68045;50.042;14.432;2023-03-18T18:58:38;98177.13;;;10.62;45.00
78717;BME280;68045;50.042;14.432;2023-03-18T19:02:39;98170.25;;;10.61;45.05
78717;BME280;68045;50.042;14.432;2023-03-18T19:06:43;98163.25;;;10.55;44.91
78717;BME280;68045;50.042;14.432;2023-03-18T19:10:46;98171.41;;;10.53;44.71
78717;BME280;68045;50.042;14.432;2023-03-18T19:14:47;98166.81;;;10.49;46.26
78717;BME280;68045;50.042;14.432;2023-03-18T19:18:48;98169.34;;;10.43;45.81
78717;BME280;68045;50.042;14.432;2023-03-18T19:22:52;98170.84;;;10.39;45.87
78717;BME280;68045;50.042;14.432;2023-03-18T19:26:55;98177.03;;;10.33;46.08
78717;BME280;68045;50.042;14.432;2023-03-18T19:30:58;98169.69;;;10.35;45.96
78717;BME280;68045;50.042;14.432;2023-03-18T19:34:59;98164.50;;;10.17;46.60
78717;BME280;68045;50.042;14.432;2023-03-18T19:39:01;98162.78;;;10.11;46.21
78717;BME280;68045;50.042;14.432;2023-03-18T19:43:12;98165.44;;;10.11;46.77
78717;BME280;68045;50.042;14.432;2023-03-18T19:47:26;98168.41;;;10.14;47.47
78717;BME280;68045;50.042;14.432;2023-03-18T19:51:28;98165.09;;;10.19;47.13
78717;BME280;68045;50.042;14.432;2023-03-18T19:55:29;98163.94;;;10.15;47.42
78717;BME280;68045;50.042;14.432;2023-03-18T19:59:30;98158.78;;;10.20;46.79
78717;BME280;68045;50.042;14.432;2023-03-18T20:03:32;98173.22;;;10.06;46.63
78717;BME280;68045;50.042;14.432;2023-03-18T20:07:34;98162.31;;;9.90;46.70
78717;BME280;68045;50.042;14.432;2023-03-18T20:11:36;98161.75;;;9.88;47.28
78717;BME280;68045;50.042;14.432;2023-03-18T20:15:37;98157.81;;;9.79;46.90
78717;BME280;68045;50.042;14.432;2023-03-18T20:19:38;98147.75;;;9.76;47.32
78717;BME280;68045;50.042;14.432;2023-03-18T20:23:39;98155.19;;;9.68;47.21
78717;BME280;68045;50.042;14.432;2023-03-18T20:27:40;98156.56;;;9.70;47.84
78717;BME280;68045;50.042;14.432;2023-03-18T20:31:42;98150.16;;;9.66;48.30
78717;BME280;68045;50.042;14.432;2023-03-18T20:35:45;98153.22;;;9.63;48.50
78717;BME280;68045;50.042;14.432;2023-03-18T20:39:48;98140.28;;;9.61;48.02
78717;BME280;68045;50.042;14.432;2023-03-18T20:43:50;98151.84;;;9.60;47.83
78717;BME280;68045;50.042;14.432;2023-03-18T20:47:51;98164.47;;;9.58;48.62
78717;BME280;68045;50.042;14.432;2023-03-18T20:51:53;98157.13;;;9.60;48.75
78717;BME280;68045;50.042;14.432;2023-03-18T20:55:54;98160.56;;;9.61;48.38
78717;BME280;68045;50.042;14.432;2023-03-18T20:59:55;98154.81;;;9.52;48.08
78717;BME280;68045;50.042;14.432;2023-03-18T21:03:57;98149.97;;;9.49;48.51
78717;BME280;68045;50.042;14.432;2023-03-18T21:08:01;98162.34;;;9.49;49.12
78717;BME280;68045;50.042;14.432;2023-03-18T21:12:03;98163.97;;;9.50;48.67
78717;BME280;68045;50.042;14.432;2023-03-18T21:16:06;98159.38;;;9.45;48.69
78717;BME280;68045;50.042;14.432;2023-03-18T21:20:19;98169.22;;;9.38;50.45
78717;BME280;68045;50.042;14.432;2023-03-18T21:24:25;98183.38;;;9.37;50.36
78717;BME280;68045;50.042;14.432;2023-03-18T21:28:27;98186.34;;;9.29;50.70
78717;BME280;68045;50.042;14.432;2023-03-18T21:32:29;98174.06;;;9.23;51.66
78717;BME280;68045;50.042;14.432;2023-03-18T21:36:33;98181.03;;;9.17;51.38
78717;BME280;68045;50.042;14.432;2023-03-18T21:40:36;98181.13;;;9.11;52.11
78717;BME280;68045;50.042;14.432;2023-03-18T21:44:37;98178.34;;;9.05;52.50
78717;BME280;68045;50.042;14.432;2023-03-18T21:48:39;98176.59;;;8.99;52.29
78717;BME280;68045;50.042;14.432;2023-03-18T21:52:40;98180.91;;;8.94;52.62
78717;BME280;68045;50.042;14.432;2023-03-18T21:56:42;98175.81;;;8.80;53.00
78717;BME280;68045;50.042;14.432;2023-03-18T22:00:49;98163.09;;;8.59;53.24
78717;BME280;68045;50.042;14.432;2023-03-18T22:04:51;98175.38;;;8.47;54.18
78717;BME280;68045;50.042;14.432;2023-03-18T22:08:53;98178.72;;;8.36;54.16
78717;BME280;68045;50.042;14.432;2023-03-18T22:12:56;98184.66;;;8.24;55.77
78717;BME280;68045;50.042;14.432;2023-03-18T22:16:57;98189.72;;;8.01;55.29
78717;BME280;68045;50.042;14.432;2023-03-18T22:20:58;98192.75;;;7.48;57.29
78717;BME280;68045;50.042;14.432;2023-03-18T22:24:59;98180.56;;;7.54;57.85
78717;BME280;68045;50.042;14.432;2023-03-18T22:29:00;98183.56;;;7.64;57.46
78717;BME280;68045;50.042;14.432;2023-03-18T22:33:04;98176.91;;;7.61;56.85
78717;BME280;68045;50.042;14.432;2023-03-18T22:37:13;98172.47;;;7.62;57.05
78717;BME280;68045;50.042;14.432;2023-03-18T22:41:23;98186.69;;;7.48;56.63
78717;BME280;68045;50.042;14.432;2023-03-18T22:45:31;98177.03;;;7.41;57.29
78717;BME280;68045;50.042;14.432;2023-03-18T22:49:32;98180.53;;;7.60;56.78
78717;BME280;68045;50.042;14.432;2023-03-18T22:53:37;98176.59;;;7.44;57.24
78717;BME280;68045;50.042;14.432;2023-03-18T22:57:39;98170.44;;;7.26;58.19
78717;BME280;68045;50.042;14.432;2023-03-18T23:01:40;98165.03;;;7.21;58.42
78717;BME280;68045;50.042;14.432;2023-03-18T23:05:41;98168.25;;;7.23;58.30
78717;BME280;68045;50.042;14.432;2023-03-18T23:09:42;98184.06;;;7.09;59.08
78717;BME280;68045;50.042;14.432;2023-03-18T23:13:47;98178.44;;;7.06;59.05
78717;BME280;68045;50.042;14.432;2023-03-18T23:17:50;98171.44;;;6.93;59.08